sensor_id;sensor_type;location;lat;lon;timestamp;P1;durP1;ratioP1;P2;durP2;ratioP2
7383;SDS011;3733;47.994;8.820;2023-04-08T00:00:34;6.93;;;6.00;;
7383;SDS011;3733;47.994;8.820;2023-04-08T00:03:00;8.33;;;6.10;;
7383;SDS011;3733;47.994;8.820;2023-04-08T00:05:26;9.70;;;6.57;;
7383;SDS011;3733;47.994;8.820;2023-04-08T00:07:52;8.73;;;6.23;;
7383;SDS011;3733;47.994;8.820;2023-04-08T00:10:18;9.83;;;6.70;;
7383;SDS011;3733;47.994;8.820;2023-04-08T00:12:43;10.50;;;6.80;;
7383;SDS011;3733;47.994;8.820;2023-04-08T00:15:09;8.30;;;6.20;;
7383;SDS011;3733;47.994;8.820;2023-04-08T00:17:35;10.67;;;6.23;;
7383;SDS011;3733;47.994;8.820;2023-04-08T00:20:01;8.73;;;6.30;;
7383;SDS011;3733;47.994;8.820;2023-04-08T00:22:27;15.67;;;7.07;;
7383;SDS011;3733;47.994;8.820;2023-04-08T00:24:52;8.00;;;5.70;;
7383;SDS011;3733;47.994;8.820;2023-04-08T00:27:18;9.90;;;7.03;;
7383;SDS011;3733;47.994;8.820;2023-04-08T00:29:43;9.47;;;6.80;;
7383;SDS011;3733;47.994;8.820;2023-04-08T00:32:09;10.40;;;6.37;;
7383;SDS011;3733;47.994;8.820;2023-04-08T00:34:35;8.90;;;6.07;;
7383;SDS011;3733;47.994;8.820;2023-04-08T00:37:01;7.50;;;5.30;;
7383;SDS011;3733;47.994;8.820;2023-04-08T00:39:27;9.33;;;6.27;;
7383;SDS011;3733;47.994;8.820;2023-04-08T00:41:52;9.47;;;6.20;;
7383;SDS011;3733;47.994;8.820;2023-04-08T00:44:18;7.80;;;5.87;;
7383;SDS011;3733;47.994;8.820;2023-04-08T00:46:44;11.93;;;7.50;;
7383;SDS011;3733;47.994;8.820;2023-04-08T00:49:10;10.83;;;7.60;;
7383;SDS011;3733;47.994;8.820;2023-04-08T00:51:36;11.40;;;7.97;;
7383;SDS011;3733;47.994;8.820;2023-04-08T00:54:02;10.57;;;6.67;;
7383;SDS011;3733;47.994;8.820;2023-04-08T00:56:31;9.07;;;6.80;;
7383;SDS011;3733;47.994;8.820;2023-04-08T00:58:59;14.50;;;7.93;;
7383;SDS011;3733;47.994;8.820;2023-04-08T01:04:20;10.87;;;6.73;;
7383;SDS011;3733;47.994;8.820;2023-04-08T01:06:56;16.13;;;9.37;;
7383;SDS011;3733;47.994;8.820;2023-04-08T01:09:47;18.33;;;9.30;;
7383;SDS011;3733;47.994;8.820;2023-04-08T01:12:20;11.60;;;7.70;;
7383;SDS011;3733;47.994;8.820;2023-04-08T01:15:00;14.27;;;7.80;;
7383;SDS011;3733;47.994;8.820;2023-04-08T01:17:27;13.83;;;7.20;;
7383;SDS011;3733;47.994;8.820;2023-04-08T01:19:55;11.03;;;7.33;;
7383;SDS011;3733;47.994;8.820;2023-04-08T01:25:31;7.67;;;6.23;;
7383;SDS011;3733;47.994;8.820;2023-04-08T01:28:05;10.33;;;6.73;;
7383;SDS011;3733;47.994;8.820;2023-04-08T01:30:34;9.90;;;6.77;;
7383;SDS011;3733;47.994;8.820;2023-04-08T01:33:03;11.93;;;7.80;;
7383;SDS011;3733;47.994;8.820;2023-04-08T01:35:30;11.83;;;9.03;;
7383;SDS011;3733;47.994;8.820;2023-04-08T01:37:56;12.90;;;9.20;;
7383;SDS011;3733;47.994;8.820;2023-04-08T01:40:23;16.00;;;8.57;;
7383;SDS011;3733;47.994;8.820;2023-04-08T01:42:49;17.33;;;8.53;;
7383;SDS011;3733;47.994;8.820;2023-04-08T01:45:19;12.07;;;8.43;;
7383;SDS011;3733;47.994;8.820;2023-04-08T01:47:46;18.93;;;8.97;;
7383;SDS011;3733;47.994;8.820;2023-04-08T01:50:13;17.90;;;9.77;;
7383;SDS011;3733;47.994;8.820;2023-04-08T01:52:42;11.90;;;9.17;;
7383;SDS011;3733;47.994;8.820;2023-04-08T01:55:08;14.13;;;8.83;;
7383;SDS011;3733;47.994;8.820;2023-04-08T01:57:35;12.43;;;9.33;;
7383;SDS011;3733;47.994;8.820;2023-04-08T02:00:04;13.47;;;8.57;;
7383;SDS011;3733;47.994;8.820;2023-04-08T02:02:34;10.70;;;8.53;;
7383;SDS011;3733;47.994;8.820;2023-04-08T02:05:01;13.60;;;8.33;;
7383;SDS011;3733;47.994;8.820;2023-04-08T02:07:27;11.77;;;8.30;;
7383;SDS011;3733;47.994;8.820;2023-04-08T02:09:54;15.23;;;10.47;;
7383;SDS011;3733;47.994;8.820;2023-04-08T02:12:20;13.83;;;9.70;;
7383;SDS011;3733;47.994;8.820;2023-04-08T02:14:46;13.17;;;9.73;;
7383;SDS011;3733;47.994;8.820;2023-04-08T02:17:18;12.63;;;8.67;;
7383;SDS011;3733;47.994;8.820;2023-04-08T02:19:56;15.10;;;9.70;;
7383;SDS011;3733;47.994;8.820;2023-04-08T02:22:40;12.07;;;9.30;;
7383;SDS011;3733;47.994;8.820;2023-04-08T02:25:08;14.17;;;9.67;;
7383;SDS011;3733;47.994;8.820;2023-04-08T02:27:37;15.97;;;9.20;;
7383;SDS011;3733;47.994;8.820;2023-04-08T02:30:05;13.37;;;9.17;;
7383;SDS011;3733;47.994;8.820;2023-04-08T02:32:32;15.27;;;10.30;;
7383;SDS011;3733;47.994;8.820;2023-04-08T02:35:00;14.13;;;9.10;;
7383;SDS011;3733;47.994;8.820;2023-04-08T02:37:27;17.50;;;10.33;;
7383;SDS011;3733;47.994;8.820;2023-04-08T02:39:54;16.90;;;10.57;;
7383;SDS011;3733;47.994;8.820;2023-04-08T02:42:20;17.20;;;10.83;;
7383;SDS011;3733;47.994;8.820;2023-04-08T02:44:45;17.03;;;10.80;;
7383;SDS011;3733;47.994;8.820;2023-04-08T02:47:11;18.20;;;10.80;;
7383;SDS011;3733;47.994;8.820;2023-04-08T02:49:37;17.17;;;10.67;;
7383;SDS011;3733;47.994;8.820;2023-04-08T02:52:02;19.93;;;11.37;;
7383;SDS011;3733;47.994;8.820;2023-04-08T02:54:28;17.20;;;11.10;;
7383;SDS011;3733;47.994;8.820;2023-04-08T02:56:54;14.53;;;9.60;;
7383;SDS011;3733;47.994;8.820;2023-04-08T02:59:20;16.67;;;10.03;;
7383;SDS011;3733;47.994;8.820;2023-04-08T03:01:45;15.33;;;10.03;;
7383;SDS011;3733;47.994;8.820;2023-04-08T03:04:11;17.07;;;10.77;;
7383;SDS011;3733;47.994;8.820;2023-04-08T03:06:37;17.57;;;10.27;;
7383;SDS011;3733;47.994;8.820;2023-04-08T03:09:02;16.87;;;10.80;;
7383;SDS011;3733;47.994;8.820;2023-04-08T03:11:29;16.70;;;10.80;;
7383;SDS011;3733;47.994;8.820;2023-04-08T03:13:55;17.67;;;10.67;;
7383;SDS011;3733;47.994;8.820;2023-04-08T03:16:21;19.60;;;11.53;;
7383;SDS011;3733;47.994;8.820;2023-04-08T03:18:48;16.77;;;10.40;;
7383;SDS011;3733;47.994;8.820;2023-04-08T03:21:15;16.03;;;10.57;;
7383;SDS011;3733;47.994;8.820;2023-04-08T03:23:40;16.30;;;10.30;;
7383;SDS011;3733;47.994;8.820;2023-04-08T03:26:06;16.33;;;10.43;;
7383;SDS011;3733;47.994;8.820;2023-04-08T03:28:31;15.77;;;9.40;;
7383;SDS011;3733;47.994;8.820;2023-04-08T03:30:57;15.97;;;9.60;;
7383;SDS011;3733;47.994;8.820;2023-04-08T03:33:24;18.33;;;11.67;;
7383;SDS011;3733;47.994;8.820;2023-04-08T03:35:50;18.93;;;10.53;;
7383;SDS011;3733;47.994;8.820;2023-04-08T03:38:17;18.13;;;11.03;;
7383;SDS011;3733;47.994;8.820;2023-04-08T03:40:43;17.73;;;10.00;;
7383;SDS011;3733;47.994;8.820;2023-04-08T03:43:09;19.43;;;10.60;;
7383;SDS011;3733;47.994;8.820;2023-04-08T03:45:35;16.30;;;10.00;;
7383;SDS011;3733;47.994;8.820;2023-04-08T03:48:01;25.40;;;12.43;;
7383;SDS011;3733;47.994;8.820;2023-04-08T03:50:27;19.60;;;11.23;;
7383;SDS011;3733;47.994;8.820;2023-04-08T03:52:53;19.10;;;11.07;;
7383;SDS011;3733;47.994;8.820;2023-04-08T03:55:18;18.53;;;11.30;;
7383;SDS011;3733;47.994;8.820;2023-04-08T03:57:44;16.37;;;10.47;;
7383;SDS011;3733;47.994;8.820;2023-04-08T04:00:10;15.40;;;9.80;;
7383;SDS011;3733;47.994;8.820;2023-04-08T04:02:36;13.67;;;9.20;;
7383;SDS011;3733;47.994;8.820;2023-04-08T04:05:01;14.03;;;9.37;;
7383;SDS011;3733;47.994;8.820;2023-04-08T04:07:27;13.53;;;8.73;;
7383;SDS011;3733;47.994;8.820;2023-04-08T04:09:53;14.57;;;9.50;;
7383;SDS011;3733;47.994;8.820;2023-04-08T04:12:21;13.93;;;9.00;;
7383;SDS011;3733;47.994;8.820;2023-04-08T04:14:47;12.30;;;9.47;;
7383;SDS011;3733;47.994;8.820;2023-04-08T04:17:12;13.80;;;9.13;;
7383;SDS011;3733;47.994;8.820;2023-04-08T04:19:38;17.60;;;8.77;;
7383;SDS011;3733;47.994;8.820;2023-04-08T04:22:04;13.77;;;9.07;;
7383;SDS011;3733;47.994;8.820;2023-04-08T04:24:29;15.93;;;8.87;;
7383;SDS011;3733;47.994;8.820;2023-04-08T04:26:55;15.87;;;9.80;;
7383;SDS011;3733;47.994;8.820;2023-04-08T04:29:20;13.03;;;8.60;;
7383;SDS011;3733;47.994;8.820;2023-04-08T04:31:46;15.20;;;9.70;;
7383;SDS011;3733;47.994;8.820;2023-04-08T04:34:11;12.73;;;9.43;;
7383;SDS011;3733;47.994;8.820;2023-04-08T04:36:37;14.43;;;9.67;;
7383;SDS011;3733;47.994;8.820;2023-04-08T04:39:03;13.83;;;10.50;;
7383;SDS011;3733;47.994;8.820;2023-04-08T04:41:28;14.77;;;10.30;;
7383;SDS011;3733;47.994;8.820;2023-04-08T04:43:54;14.73;;;9.90;;
7383;SDS011;3733;47.994;8.820;2023-04-08T04:46:19;17.27;;;10.40;;
7383;SDS011;3733;47.994;8.820;2023-04-08T04:48:45;16.87;;;9.80;;
7383;SDS011;3733;47.994;8.820;2023-04-08T04:51:11;15.40;;;9.90;;
7383;SDS011;3733;47.994;8.820;2023-04-08T04:53:36;14.77;;;9.50;;
7383;SDS011;3733;47.994;8.820;2023-04-08T04:56:02;15.23;;;9.53;;
7383;SDS011;3733;47.994;8.820;2023-04-08T04:58:28;14.03;;;8.90;;
7383;SDS011;3733;47.994;8.820;2023-04-08T05:00:54;14.30;;;9.67;;
7383;SDS011;3733;47.994;8.820;2023-04-08T05:03:20;12.60;;;9.13;;
7383;SDS011;3733;47.994;8.820;2023-04-08T05:05:49;17.97;;;10.57;;
7383;SDS011;3733;47.994;8.820;2023-04-08T05:08:16;15.30;;;9.93;;
7383;SDS011;3733;47.994;8.820;2023-04-08T05:10:42;16.20;;;10.40;;
7383;SDS011;3733;47.994;8.820;2023-04-08T05:13:07;16.47;;;10.30;;
7383;SDS011;3733;47.994;8.820;2023-04-08T05:15:33;13.83;;;10.00;;
7383;SDS011;3733;47.994;8.820;2023-04-08T05:17:59;15.47;;;10.50;;
7383;SDS011;3733;47.994;8.820;2023-04-08T05:20:25;19.47;;;11.23;;
7383;SDS011;3733;47.994;8.820;2023-04-08T05:22:50;16.00;;;11.60;;
7383;SDS011;3733;47.994;8.820;2023-04-08T05:25:16;18.20;;;11.47;;
7383;SDS011;3733;47.994;8.820;2023-04-08T05:27:42;15.40;;;9.77;;
7383;SDS011;3733;47.994;8.820;2023-04-08T05:30:07;17.17;;;11.03;;
7383;SDS011;3733;47.994;8.820;2023-04-08T05:32:33;13.20;;;8.27;;
7383;SDS011;3733;47.994;8.820;2023-04-08T05:35:01;15.60;;;10.50;;
7383;SDS011;3733;47.994;8.820;2023-04-08T05:37:27;13.67;;;9.57;;
7383;SDS011;3733;47.994;8.820;2023-04-08T05:39:53;14.57;;;9.90;;
7383;SDS011;3733;47.994;8.820;2023-04-08T05:42:19;13.20;;;9.47;;
7383;SDS011;3733;47.994;8.820;2023-04-08T05:44:44;15.97;;;10.27;;
7383;SDS011;3733;47.994;8.820;2023-04-08T05:47:10;17.60;;;11.00;;
7383;SDS011;3733;47.994;8.820;2023-04-08T05:49:35;19.20;;;12.27;;
7383;SDS011;3733;47.994;8.820;2023-04-08T05:52:01;16.57;;;11.20;;
7383;SDS011;3733;47.994;8.820;2023-04-08T05:54:27;13.90;;;9.90;;
7383;SDS011;3733;47.994;8.820;2023-04-08T05:56:53;15.50;;;10.23;;
7383;SDS011;3733;47.994;8.820;2023-04-08T05:59:19;14.60;;;9.73;;
7383;SDS011;3733;47.994;8.820;2023-04-08T06:01:45;15.77;;;10.77;;
7383;SDS011;3733;47.994;8.820;2023-04-08T06:04:10;12.50;;;9.30;;
7383;SDS011;3733;47.994;8.820;2023-04-08T06:06:36;17.90;;;9.30;;
7383;SDS011;3733;47.994;8.820;2023-04-08T06:09:05;18.17;;;11.00;;
7383;SDS011;3733;47.994;8.820;2023-04-08T06:11:31;16.33;;;10.03;;
7383;SDS011;3733;47.994;8.820;2023-04-08T06:13:56;14.30;;;10.10;;
7383;SDS011;3733;47.994;8.820;2023-04-08T06:16:22;17.23;;;11.27;;
7383;SDS011;3733;47.994;8.820;2023-04-08T06:18:47;17.00;;;11.20;;
7383;SDS011;3733;47.994;8.820;2023-04-08T06:21:13;16.13;;;11.53;;
7383;SDS011;3733;47.994;8.820;2023-04-08T06:23:39;18.67;;;10.57;;
7383;SDS011;3733;47.994;8.820;2023-04-08T06:26:05;21.13;;;12.57;;
7383;SDS011;3733;47.994;8.820;2023-04-08T06:28:31;20.10;;;12.07;;
7383;SDS011;3733;47.994;8.820;2023-04-08T06:30:57;18.63;;;10.30;;
7383;SDS011;3733;47.994;8.820;2023-04-08T06:33:23;15.60;;;10.67;;
7383;SDS011;3733;47.994;8.820;2023-04-08T06:35:49;17.80;;;12.37;;
7383;SDS011;3733;47.994;8.820;2023-04-08T06:38:15;17.40;;;12.77;;
7383;SDS011;3733;47.994;8.820;2023-04-08T06:40:40;20.37;;;12.40;;
7383;SDS011;3733;47.994;8.820;2023-04-08T06:43:06;16.50;;;10.97;;
7383;SDS011;3733;47.994;8.820;2023-04-08T06:45:32;18.30;;;11.30;;
7383;SDS011;3733;47.994;8.820;2023-04-08T06:47:58;19.67;;;11.80;;
7383;SDS011;3733;47.994;8.820;2023-04-08T06:50:24;15.63;;;10.80;;
7383;SDS011;3733;47.994;8.820;2023-04-08T06:52:50;16.00;;;10.50;;
7383;SDS011;3733;47.994;8.820;2023-04-08T06:55:16;19.20;;;11.67;;
7383;SDS011;3733;47.994;8.820;2023-04-08T06:57:41;19.70;;;11.47;;
7383;SDS011;3733;47.994;8.820;2023-04-08T07:00:07;16.00;;;11.20;;
7383;SDS011;3733;47.994;8.820;2023-04-08T07:02:33;18.23;;;12.57;;
7383;SDS011;3733;47.994;8.820;2023-04-08T07:04:59;23.70;;;13.97;;
7383;SDS011;3733;47.994;8.820;2023-04-08T07:07:24;18.67;;;13.00;;
7383;SDS011;3733;47.994;8.820;2023-04-08T07:09:50;17.00;;;11.90;;
7383;SDS011;3733;47.994;8.820;2023-04-08T07:12:16;18.63;;;12.23;;
7383;SDS011;3733;47.994;8.820;2023-04-08T07:14:41;19.90;;;12.73;;
7383;SDS011;3733;47.994;8.820;2023-04-08T07:17:07;18.13;;;11.63;;
7383;SDS011;3733;47.994;8.820;2023-04-08T07:19:32;18.40;;;12.30;;
7383;SDS011;3733;47.994;8.820;2023-04-08T07:21:58;17.27;;;11.20;;
7383;SDS011;3733;47.994;8.820;2023-04-08T07:24:24;19.00;;;11.07;;
7383;SDS011;3733;47.994;8.820;2023-04-08T07:26:50;20.27;;;12.40;;
7383;SDS011;3733;47.994;8.820;2023-04-08T07:29:16;17.70;;;10.90;;
7383;SDS011;3733;47.994;8.820;2023-04-08T07:31:42;23.30;;;12.70;;
7383;SDS011;3733;47.994;8.820;2023-04-08T07:34:08;17.43;;;10.67;;
7383;SDS011;3733;47.994;8.820;2023-04-08T07:36:34;17.60;;;11.70;;
7383;SDS011;3733;47.994;8.820;2023-04-08T07:39:00;17.10;;;10.77;;
7383;SDS011;3733;47.994;8.820;2023-04-08T07:41:26;19.27;;;11.20;;
7383;SDS011;3733;47.994;8.820;2023-04-08T07:43:52;17.93;;;11.13;;
7383;SDS011;3733;47.994;8.820;2023-04-08T07:46:17;15.93;;;10.60;;
7383;SDS011;3733;47.994;8.820;2023-04-08T07:48:45;18.00;;;10.10;;
7383;SDS011;3733;47.994;8.820;2023-04-08T07:51:10;17.40;;;10.70;;
7383;SDS011;3733;47.994;8.820;2023-04-08T07:53:36;14.80;;;8.60;;
7383;SDS011;3733;47.994;8.820;2023-04-08T07:56:02;14.10;;;9.77;;
7383;SDS011;3733;47.994;8.820;2023-04-08T07:58:34;14.17;;;8.63;;
7383;SDS011;3733;47.994;8.820;2023-04-08T08:01:00;23.83;;;9.53;;
7383;SDS011;3733;47.994;8.820;2023-04-08T08:03:26;11.33;;;7.73;;
7383;SDS011;3733;47.994;8.820;2023-04-08T08:05:51;15.63;;;9.93;;
7383;SDS011;3733;47.994;8.820;2023-04-08T08:08:17;15.43;;;9.37;;
7383;SDS011;3733;47.994;8.820;2023-04-08T08:10:42;13.33;;;8.80;;
7383;SDS011;3733;47.994;8.820;2023-04-08T08:13:08;13.57;;;9.13;;
7383;SDS011;3733;47.994;8.820;2023-04-08T08:15:34;12.10;;;8.30;;
7383;SDS011;3733;47.994;8.820;2023-04-08T08:17:59;10.47;;;7.40;;
7383;SDS011;3733;47.994;8.820;2023-04-08T08:20:25;10.70;;;8.00;;
7383;SDS011;3733;47.994;8.820;2023-04-08T08:22:51;9.27;;;7.20;;
7383;SDS011;3733;47.994;8.820;2023-04-08T08:25:16;10.53;;;7.47;;
7383;SDS011;3733;47.994;8.820;2023-04-08T08:27:42;9.87;;;6.60;;
7383;SDS011;3733;47.994;8.820;2023-04-08T08:30:09;9.87;;;6.97;;
7383;SDS011;3733;47.994;8.820;2023-04-08T08:32:35;9.80;;;6.30;;
7383;SDS011;3733;47.994;8.820;2023-04-08T08:35:01;14.17;;;7.63;;
7383;SDS011;3733;47.994;8.820;2023-04-08T08:37:27;11.80;;;8.10;;
7383;SDS011;3733;47.994;8.820;2023-04-08T08:39:52;8.80;;;6.23;;
7383;SDS011;3733;47.994;8.820;2023-04-08T08:42:20;9.70;;;6.60;;
7383;SDS011;3733;47.994;8.820;2023-04-08T08:44:47;9.60;;;6.90;;
7383;SDS011;3733;47.994;8.820;2023-04-08T08:47:13;9.53;;;7.07;;
7383;SDS011;3733;47.994;8.820;2023-04-08T08:49:39;13.07;;;7.13;;
7383;SDS011;3733;47.994;8.820;2023-04-08T08:52:05;11.83;;;7.47;;
7383;SDS011;3733;47.994;8.820;2023-04-08T08:54:31;9.00;;;6.67;;
7383;SDS011;3733;47.994;8.820;2023-04-08T08:56:56;13.00;;;7.33;;
7383;SDS011;3733;47.994;8.820;2023-04-08T08:59:22;10.40;;;7.50;;
7383;SDS011;3733;47.994;8.820;2023-04-08T09:01:48;9.17;;;6.80;;
7383;SDS011;3733;47.994;8.820;2023-04-08T09:06:47;9.00;;;6.93;;
7383;SDS011;3733;47.994;8.820;2023-04-08T09:09:15;11.17;;;7.60;;
7383;SDS011;3733;47.994;8.820;2023-04-08T09:11:42;10.80;;;7.50;;
7383;SDS011;3733;47.994;8.820;2023-04-08T09:14:16;12.87;;;7.80;;
7383;SDS011;3733;47.994;8.820;2023-04-08T09:16:42;10.97;;;8.03;;
7383;SDS011;3733;47.994;8.820;2023-04-08T09:19:09;12.00;;;8.20;;
7383;SDS011;3733;47.994;8.820;2023-04-08T09:21:35;10.47;;;7.90;;
7383;SDS011;3733;47.994;8.820;2023-04-08T09:24:01;9.47;;;7.07;;
7383;SDS011;3733;47.994;8.820;2023-04-08T09:26:27;9.40;;;7.40;;
7383;SDS011;3733;47.994;8.820;2023-04-08T09:29:00;11.60;;;8.37;;
7383;SDS011;3733;47.994;8.820;2023-04-08T09:31:27;10.33;;;7.57;;
7383;SDS011;3733;47.994;8.820;2023-04-08T09:33:54;9.27;;;7.13;;
7383;SDS011;3733;47.994;8.820;2023-04-08T09:36:25;8.80;;;6.80;;
7383;SDS011;3733;47.994;8.820;2023-04-08T09:38:51;9.43;;;7.03;;
7383;SDS011;3733;47.994;8.820;2023-04-08T09:41:17;9.97;;;7.10;;
7383;SDS011;3733;47.994;8.820;2023-04-08T09:43:48;11.93;;;7.27;;
7383;SDS011;3733;47.994;8.820;2023-04-08T09:46:16;9.87;;;7.23;;
7383;SDS011;3733;47.994;8.820;2023-04-08T09:48:51;9.37;;;6.73;;
7383;SDS011;3733;47.994;8.820;2023-04-08T09:51:22;11.37;;;6.60;;
7383;SDS011;3733;47.994;8.820;2023-04-08T09:53:53;9.63;;;6.40;;
7383;SDS011;3733;47.994;8.820;2023-04-08T09:56:23;12.60;;;7.80;;
7383;SDS011;3733;47.994;8.820;2023-04-08T09:58:51;8.83;;;6.60;;
7383;SDS011;3733;47.994;8.820;2023-04-08T10:01:27;12.53;;;7.57;;
7383;SDS011;3733;47.994;8.820;2023-04-08T10:04:01;9.67;;;6.50;;
7383;SDS011;3733;47.994;8.820;2023-04-08T10:06:31;10.27;;;6.23;;
7383;SDS011;3733;47.994;8.820;2023-04-08T10:08:59;7.00;;;5.30;;
7383;SDS011;3733;47.994;8.820;2023-04-08T10:11:26;5.43;;;4.40;;
7383;SDS011;3733;47.994;8.820;2023-04-08T10:13:54;6.10;;;4.50;;
7383;SDS011;3733;47.994;8.820;2023-04-08T10:16:20;6.50;;;5.27;;
7383;SDS011;3733;47.994;8.820;2023-04-08T10:18:49;7.07;;;5.30;;
7383;SDS011;3733;47.994;8.820;2023-04-08T10:24:07;7.07;;;4.60;;
7383;SDS011;3733;47.994;8.820;2023-04-08T10:26:35;4.63;;;4.00;;
7383;SDS011;3733;47.994;8.820;2023-04-08T10:31:49;5.77;;;4.80;;
7383;SDS011;3733;47.994;8.820;2023-04-08T10:34:16;5.57;;;4.50;;
7383;SDS011;3733;47.994;8.820;2023-04-08T10:36:43;5.70;;;5.10;;
7383;SDS011;3733;47.994;8.820;2023-04-08T10:39:09;5.20;;;4.60;;
7383;SDS011;3733;47.994;8.820;2023-04-08T10:44:18;7.70;;;5.33;;
7383;SDS011;3733;47.994;8.820;2023-04-08T10:46:44;10.77;;;6.17;;
7383;SDS011;3733;47.994;8.820;2023-04-08T10:49:12;6.53;;;5.50;;
7383;SDS011;3733;47.994;8.820;2023-04-08T10:51:38;6.63;;;5.93;;
7383;SDS011;3733;47.994;8.820;2023-04-08T10:54:13;6.30;;;5.27;;
7383;SDS011;3733;47.994;8.820;2023-04-08T10:56:47;7.17;;;5.57;;
7383;SDS011;3733;47.994;8.820;2023-04-08T10:59:26;6.07;;;5.30;;
7383;SDS011;3733;47.994;8.820;2023-04-08T11:01:58;6.90;;;5.20;;
7383;SDS011;3733;47.994;8.820;2023-04-08T11:04:25;7.93;;;6.23;;
7383;SDS011;3733;47.994;8.820;2023-04-08T11:06:51;7.90;;;5.00;;
7383;SDS011;3733;47.994;8.820;2023-04-08T11:09:16;7.23;;;5.30;;
7383;SDS011;3733;47.994;8.820;2023-04-08T11:11:43;5.23;;;4.60;;
7383;SDS011;3733;47.994;8.820;2023-04-08T11:14:10;6.13;;;4.80;;
7383;SDS011;3733;47.994;8.820;2023-04-08T11:16:37;8.40;;;6.37;;
7383;SDS011;3733;47.994;8.820;2023-04-08T11:19:03;8.20;;;6.33;;
7383;SDS011;3733;47.994;8.820;2023-04-08T11:21:36;8.20;;;6.97;;
7383;SDS011;3733;47.994;8.820;2023-04-08T11:24:06;9.23;;;6.90;;
7383;SDS011;3733;47.994;8.820;2023-04-08T11:26:34;8.20;;;6.00;;
7383;SDS011;3733;47.994;8.820;2023-04-08T11:29:01;8.40;;;6.37;;
7383;SDS011;3733;47.994;8.820;2023-04-08T11:31:28;9.80;;;7.00;;
7383;SDS011;3733;47.994;8.820;2023-04-08T11:33:54;8.40;;;6.47;;
7383;SDS011;3733;47.994;8.820;2023-04-08T11:36:20;7.50;;;5.80;;
7383;SDS011;3733;47.994;8.820;2023-04-08T11:38:46;9.20;;;6.90;;
7383;SDS011;3733;47.994;8.820;2023-04-08T11:41:12;8.87;;;6.23;;
7383;SDS011;3733;47.994;8.820;2023-04-08T11:43:38;7.60;;;6.33;;
7383;SDS011;3733;47.994;8.820;2023-04-08T11:46:08;7.13;;;5.83;;
7383;SDS011;3733;47.994;8.820;2023-04-08T11:48:35;9.57;;;7.50;;
7383;SDS011;3733;47.994;8.820;2023-04-08T11:51:03;11.73;;;9.07;;
7383;SDS011;3733;47.994;8.820;2023-04-08T11:53:29;14.70;;;8.57;;
7383;SDS011;3733;47.994;8.820;2023-04-08T11:55:55;9.50;;;7.27;;
7383;SDS011;3733;47.994;8.820;2023-04-08T11:58:21;9.90;;;7.43;;
7383;SDS011;3733;47.994;8.820;2023-04-08T12:00:47;8.67;;;7.20;;
7383;SDS011;3733;47.994;8.820;2023-04-08T12:03:13;9.47;;;7.60;;
7383;SDS011;3733;47.994;8.820;2023-04-08T12:05:38;9.03;;;7.53;;
7383;SDS011;3733;47.994;8.820;2023-04-08T12:08:04;10.20;;;7.47;;
7383;SDS011;3733;47.994;8.820;2023-04-08T12:10:30;9.60;;;7.30;;
7383;SDS011;3733;47.994;8.820;2023-04-08T12:12:56;8.70;;;6.83;;
7383;SDS011;3733;47.994;8.820;2023-04-08T12:15:22;7.63;;;6.67;;
7383;SDS011;3733;47.994;8.820;2023-04-08T12:17:47;9.97;;;7.00;;
7383;SDS011;3733;47.994;8.820;2023-04-08T12:20:13;10.27;;;8.10;;
7383;SDS011;3733;47.994;8.820;2023-04-08T12:22:41;8.90;;;6.90;;
7383;SDS011;3733;47.994;8.820;2023-04-08T12:25:06;10.93;;;7.43;;
7383;SDS011;3733;47.994;8.820;2023-04-08T12:27:32;9.40;;;6.73;;
7383;SDS011;3733;47.994;8.820;2023-04-08T12:29:58;11.20;;;8.60;;
7383;SDS011;3733;47.994;8.820;2023-04-08T12:32:25;11.90;;;8.03;;
7383;SDS011;3733;47.994;8.820;2023-04-08T12:34:51;12.70;;;8.80;;
7383;SDS011;3733;47.994;8.820;2023-04-08T12:37:16;12.20;;;8.90;;
7383;SDS011;3733;47.994;8.820;2023-04-08T12:39:42;13.17;;;9.00;;
7383;SDS011;3733;47.994;8.820;2023-04-08T12:42:08;11.40;;;8.50;;
7383;SDS011;3733;47.994;8.820;2023-04-08T12:44:33;11.50;;;8.43;;
7383;SDS011;3733;47.994;8.820;2023-04-08T12:46:59;12.77;;;9.30;;
7383;SDS011;3733;47.994;8.820;2023-04-08T12:49:25;12.07;;;9.10;;
7383;SDS011;3733;47.994;8.820;2023-04-08T12:51:51;12.33;;;8.53;;
7383;SDS011;3733;47.994;8.820;2023-04-08T12:54:17;10.73;;;8.13;;
7383;SDS011;3733;47.994;8.820;2023-04-08T12:56:43;10.50;;;8.27;;
7383;SDS011;3733;47.994;8.820;2023-04-08T12:59:09;12.60;;;9.30;;
7383;SDS011;3733;47.994;8.820;2023-04-08T13:01:35;13.00;;;9.63;;
7383;SDS011;3733;47.994;8.820;2023-04-08T13:04:00;13.00;;;10.33;;
7383;SDS011;3733;47.994;8.820;2023-04-08T13:06:26;15.10;;;10.77;;
7383;SDS011;3733;47.994;8.820;2023-04-08T13:08:52;14.63;;;9.73;;
7383;SDS011;3733;47.994;8.820;2023-04-08T13:11:18;14.50;;;8.97;;
7383;SDS011;3733;47.994;8.820;2023-04-08T13:13:44;11.77;;;9.17;;
7383;SDS011;3733;47.994;8.820;2023-04-08T13:16:11;12.77;;;9.53;;
7383;SDS011;3733;47.994;8.820;2023-04-08T13:18:39;12.77;;;10.03;;
7383;SDS011;3733;47.994;8.820;2023-04-08T13:21:06;13.53;;;10.40;;
7383;SDS011;3733;47.994;8.820;2023-04-08T13:23:32;25.63;;;11.40;;
7383;SDS011;3733;47.994;8.820;2023-04-08T13:25:57;15.83;;;11.50;;
7383;SDS011;3733;47.994;8.820;2023-04-08T13:28:23;18.47;;;12.60;;
7383;SDS011;3733;47.994;8.820;2023-04-08T13:30:49;16.50;;;12.20;;
7383;SDS011;3733;47.994;8.820;2023-04-08T13:33:15;19.17;;;12.80;;
7383;SDS011;3733;47.994;8.820;2023-04-08T13:35:41;18.33;;;11.93;;
7383;SDS011;3733;47.994;8.820;2023-04-08T13:38:06;17.07;;;12.87;;
7383;SDS011;3733;47.994;8.820;2023-04-08T13:40:32;20.00;;;12.93;;
7383;SDS011;3733;47.994;8.820;2023-04-08T13:42:58;15.10;;;11.00;;
7383;SDS011;3733;47.994;8.820;2023-04-08T13:45:23;19.63;;;13.27;;
7383;SDS011;3733;47.994;8.820;2023-04-08T13:47:49;19.30;;;12.80;;
7383;SDS011;3733;47.994;8.820;2023-04-08T13:50:15;19.27;;;13.07;;
7383;SDS011;3733;47.994;8.820;2023-04-08T13:52:40;19.37;;;13.90;;
7383;SDS011;3733;47.994;8.820;2023-04-08T13:55:06;18.93;;;12.90;;
7383;SDS011;3733;47.994;8.820;2023-04-08T13:57:32;20.20;;;13.87;;
7383;SDS011;3733;47.994;8.820;2023-04-08T13:59:58;17.60;;;13.10;;
7383;SDS011;3733;47.994;8.820;2023-04-08T14:02:23;15.70;;;12.70;;
7383;SDS011;3733;47.994;8.820;2023-04-08T14:04:49;21.70;;;14.90;;
7383;SDS011;3733;47.994;8.820;2023-04-08T14:07:16;20.00;;;15.00;;
7383;SDS011;3733;47.994;8.820;2023-04-08T14:09:42;17.60;;;13.53;;
7383;SDS011;3733;47.994;8.820;2023-04-08T14:12:08;21.00;;;15.33;;
7383;SDS011;3733;47.994;8.820;2023-04-08T14:14:34;19.53;;;13.67;;
7383;SDS011;3733;47.994;8.820;2023-04-08T14:17:00;19.47;;;14.10;;
7383;SDS011;3733;47.994;8.820;2023-04-08T14:19:26;19.73;;;13.87;;
7383;SDS011;3733;47.994;8.820;2023-04-08T14:21:51;21.13;;;14.00;;
7383;SDS011;3733;47.994;8.820;2023-04-08T14:24:17;22.23;;;13.67;;
7383;SDS011;3733;47.994;8.820;2023-04-08T14:26:42;19.60;;;14.10;;
7383;SDS011;3733;47.994;8.820;2023-04-08T14:29:08;20.90;;;14.77;;
7383;SDS011;3733;47.994;8.820;2023-04-08T14:31:34;19.73;;;14.00;;
7383;SDS011;3733;47.994;8.820;2023-04-08T14:34:00;19.97;;;13.63;;
7383;SDS011;3733;47.994;8.820;2023-04-08T14:36:26;17.97;;;13.17;;
7383;SDS011;3733;47.994;8.820;2023-04-08T14:38:53;15.93;;;12.50;;
7383;SDS011;3733;47.994;8.820;2023-04-08T14:41:19;17.00;;;12.93;;
7383;SDS011;3733;47.994;8.820;2023-04-08T14:43:45;22.00;;;12.97;;
7383;SDS011;3733;47.994;8.820;2023-04-08T14:46:11;19.50;;;13.70;;
7383;SDS011;3733;47.994;8.820;2023-04-08T14:48:37;23.13;;;13.90;;
7383;SDS011;3733;47.994;8.820;2023-04-08T14:51:03;19.00;;;13.80;;
7383;SDS011;3733;47.994;8.820;2023-04-08T14:53:29;25.40;;;14.47;;
7383;SDS011;3733;47.994;8.820;2023-04-08T14:55:54;19.77;;;13.90;;
7383;SDS011;3733;47.994;8.820;2023-04-08T14:58:20;18.83;;;13.10;;
7383;SDS011;3733;47.994;8.820;2023-04-08T15:00:46;18.17;;;13.63;;
7383;SDS011;3733;47.994;8.820;2023-04-08T15:03:14;20.67;;;14.77;;
7383;SDS011;3733;47.994;8.820;2023-04-08T15:05:41;23.23;;;13.80;;
7383;SDS011;3733;47.994;8.820;2023-04-08T15:08:07;28.20;;;14.40;;
7383;SDS011;3733;47.994;8.820;2023-04-08T15:10:33;24.20;;;13.73;;
7383;SDS011;3733;47.994;8.820;2023-04-08T15:12:58;20.93;;;14.80;;